sensor_id;sensor_type;location;lat;lon;timestamp;temperature;humidity
9497;DHT22;4786;51.270;4.456;2022-08-11T00:03:54;22.20;99.90
9497;DHT22;4786;51.270;4.456;2022-08-11T00:06:29;22.30;99.90
9497;DHT22;4786;51.270;4.456;2022-08-11T00:08:57;22.30;99.90
9497;DHT22;4786;51.270;4.456;2022-08-11T00:11:41;22.30;99.90
9497;DHT22;4786;51.270;4.456;2022-08-11T00:17:03;22.20;99.90
9497;DHT22;4786;51.270;4.456;2022-08-11T00:19:32;22.20;99.90
9497;DHT22;4786;51.270;4.456;2022-08-11T00:21:59;22.10;99.90
9497;DHT22;4786;51.270;4.456;2022-08-11T00:24:32;22.10;99.90
9497;DHT22;4786;51.270;4.456;2022-08-11T00:26:58;22.10;99.90
9497;DHT22;4786;51.270;4.456;2022-08-11T00:29:25;22.10;99.90
9497;DHT22;4786;51.270;4.456;2022-08-11T00:31:53;22.10;99.90
9497;DHT22;4786;51.270;4.456;2022-08-11T00:34:26;22.10;99.90
9497;DHT22;4786;51.270;4.456;2022-08-11T00:37:08;22.10;99.90
9497;DHT22;4786;51.270;4.456;2022-08-11T00:39:42;22.00;99.90
9497;DHT22;4786;51.270;4.456;2022-08-11T00:45:09;21.80;99.90
9497;DHT22;4786;51.270;4.456;2022-08-11T00:48:07;21.80;99.90
9497;DHT22;4786;51.270;4.456;2022-08-11T00:50:49;21.90;99.90
9497;DHT22;4786;51.270;4.456;2022-08-11T01:07:35;21.70;99.90
9497;DHT22;4786;51.270;4.456;2022-08-11T01:10:37;21.70;99.90
9497;DHT22;4786;51.270;4.456;2022-08-11T01:35:19;21.60;99.90
9497;DHT22;4786;51.270;4.456;2022-08-11T01:47:24;21.40;99.90
9497;DHT22;4786;51.270;4.456;2022-08-11T01:50:22;21.40;99.90
9497;DHT22;4786;51.270;4.456;2022-08-11T01:59:03;21.30;99.90
9497;DHT22;4786;51.270;4.456;2022-08-11T02:04:17;21.20;99.90
9497;DHT22;4786;51.270;4.456;2022-08-11T02:06:54;21.20;99.90
9497;DHT22;4786;51.270;4.456;2022-08-11T02:12:23;21.20;99.90
9497;DHT22;4786;51.270;4.456;2022-08-11T02:20:34;21.00;99.90
9497;DHT22;4786;51.270;4.456;2022-08-11T02:23:39;20.90;99.90
9497;DHT22;4786;51.270;4.456;2022-08-11T02:26:29;21.00;99.90
9497;DHT22;4786;51.270;4.456;2022-08-11T02:29:10;20.90;99.90
9497;DHT22;4786;51.270;4.456;2022-08-11T02:32:06;21.00;99.90
9497;DHT22;4786;51.270;4.456;2022-08-11T02:37:36;20.80;99.90
9497;DHT22;4786;51.270;4.456;2022-08-11T02:54:26;20.80;99.90
9497;DHT22;4786;51.270;4.456;2022-08-11T02:59:46;20.70;99.90
9497;DHT22;4786;51.270;4.456;2022-08-11T03:05:02;20.60;99.90
9497;DHT22;4786;51.270;4.456;2022-08-11T03:10:22;20.60;99.90
9497;DHT22;4786;51.270;4.456;2022-08-11T03:12:58;20.60;99.90
9497;DHT22;4786;51.270;4.456;2022-08-11T03:29:52;20.50;99.90
9497;DHT22;4786;51.270;4.456;2022-08-11T03:32:29;20.50;99.90
9497;DHT22;4786;51.270;4.456;2022-08-11T03:34:59;20.40;99.90
9497;DHT22;4786;51.270;4.456;2022-08-11T03:37:50;20.40;99.90
9497;DHT22;4786;51.270;4.456;2022-08-11T03:46:14;20.20;99.90
9497;DHT22;4786;51.270;4.456;2022-08-11T03:49:04;20.20;99.90
9497;DHT22;4786;51.270;4.456;2022-08-11T03:51:44;20.20;99.90
9497;DHT22;4786;51.270;4.456;2022-08-11T04:00:17;20.10;99.90
9497;DHT22;4786;51.270;4.456;2022-08-11T04:08:34;20.20;99.90
9497;DHT22;4786;51.270;4.456;2022-08-11T04:33:57;19.90;99.90
9497;DHT22;4786;51.270;4.456;2022-08-11T04:40:42;20.00;99.90
9497;DHT22;4786;51.270;4.456;2022-08-11T05:08:01;19.80;99.90
9497;DHT22;4786;51.270;4.456;2022-08-11T05:16:59;19.80;99.90
9497;DHT22;4786;51.270;4.456;2022-08-11T05:19:47;19.80;99.90
9497;DHT22;4786;51.270;4.456;2022-08-11T05:22:32;19.80;99.90
9497;DHT22;4786;51.270;4.456;2022-08-11T05:25:35;19.80;99.90
9497;DHT22;4786;51.270;4.456;2022-08-11T05:28:35;19.80;99.90
9497;DHT22;4786;51.270;4.456;2022-08-11T05:31:34;19.80;99.90
9497;DHT22;4786;51.270;4.456;2022-08-11T05:34:26;19.80;99.90
9497;DHT22;4786;51.270;4.456;2022-08-11T05:37:23;19.80;99.90
9497;DHT22;4786;51.270;4.456;2022-08-11T05:39:53;19.80;99.90
9497;DHT22;4786;51.270;4.456;2022-08-11T05:42:42;19.90;99.90
9497;DHT22;4786;51.270;4.456;2022-08-11T05:45:27;20.00;99.90
9497;DHT22;4786;51.270;4.456;2022-08-11T05:48:12;20.40;99.90
9497;DHT22;4786;51.270;4.456;2022-08-11T05:50:59;21.90;99.90
9497;DHT22;4786;51.270;4.456;2022-08-11T05:53:55;23.80;99.90
9497;DHT22;4786;51.270;4.456;2022-08-11T05:56:42;26.00;99.90
9497;DHT22;4786;51.270;4.456;2022-08-11T05:59:13;27.80;99.20
9497;DHT22;4786;51.270;4.456;2022-08-11T06:01:41;29.40;96.60
9497;DHT22;4786;51.270;4.456;2022-08-11T06:07:01;32.00;91.80
9497;DHT22;4786;51.270;4.456;2022-08-11T06:12:31;33.80;81.30
9497;DHT22;4786;51.270;4.456;2022-08-11T06:15:02;34.60;79.60
9497;DHT22;4786;51.270;4.456;2022-08-11T06:17:31;35.40;76.80
9497;DHT22;4786;51.270;4.456;2022-08-11T06:22:31;36.30;69.50
9497;DHT22;4786;51.270;4.456;2022-08-11T06:24:59;36.80;68.80
9497;DHT22;4786;51.270;4.456;2022-08-11T06:27:30;37.30;66.70
9497;DHT22;4786;51.270;4.456;2022-08-11T06:29:58;37.30;63.30
9497;DHT22;4786;51.270;4.456;2022-08-11T06:32:27;37.80;64.20
9497;DHT22;4786;51.270;4.456;2022-08-11T06:40:37;38.80;57.80
9497;DHT22;4786;51.270;4.456;2022-08-11T06:43:18;39.30;58.00
9497;DHT22;4786;51.270;4.456;2022-08-11T06:45:58;39.70;57.00
9497;DHT22;4786;51.270;4.456;2022-08-11T06:48:29;40.30;56.30
9497;DHT22;4786;51.270;4.456;2022-08-11T06:50:59;40.40;55.70
9497;DHT22;4786;51.270;4.456;2022-08-11T06:53:46;40.40;53.40
9497;DHT22;4786;51.270;4.456;2022-08-11T06:56:15;40.70;52.70
9497;DHT22;4786;51.270;4.456;2022-08-11T06:59:05;40.80;52.40
9497;DHT22;4786;51.270;4.456;2022-08-11T07:01:59;40.80;51.90
9497;DHT22;4786;51.270;4.456;2022-08-11T07:04:40;40.60;52.00
9497;DHT22;4786;51.270;4.456;2022-08-11T07:07:53;40.10;51.00
9497;DHT22;4786;51.270;4.456;2022-08-11T07:14:05;39.20;49.90
9497;DHT22;4786;51.270;4.456;2022-08-11T07:16:50;37.60;52.00
9497;DHT22;4786;51.270;4.456;2022-08-11T07:19:23;35.60;54.40
9497;DHT22;4786;51.270;4.456;2022-08-11T07:22:09;34.40;58.00
9497;DHT22;4786;51.270;4.456;2022-08-11T07:25:12;33.30;60.20
9497;DHT22;4786;51.270;4.456;2022-08-11T07:28:01;32.40;62.40
9497;DHT22;4786;51.270;4.456;2022-08-11T07:30:47;31.20;63.20
9497;DHT22;4786;51.270;4.456;2022-08-11T07:33:20;30.60;65.00
9497;DHT22;4786;51.270;4.456;2022-08-11T07:35:49;30.10;67.20
9497;DHT22;4786;51.270;4.456;2022-08-11T07:38:42;29.60;67.50
9497;DHT22;4786;51.270;4.456;2022-08-11T07:41:21;29.20;68.40
9497;DHT22;4786;51.270;4.456;2022-08-11T07:43:51;28.70;69.50
9497;DHT22;4786;51.270;4.456;2022-08-11T07:46:19;28.50;69.80
9497;DHT22;4786;51.270;4.456;2022-08-11T07:49:06;28.30;70.90
9497;DHT22;4786;51.270;4.456;2022-08-11T07:51:53;28.20;71.40
9497;DHT22;4786;51.270;4.456;2022-08-11T07:54:38;28.00;72.20
9497;DHT22;4786;51.270;4.456;2022-08-11T07:57:07;28.00;73.80
9497;DHT22;4786;51.270;4.456;2022-08-11T07:59:52;28.20;74.90
9497;DHT22;4786;51.270;4.456;2022-08-11T08:02:39;28.40;73.80
9497;DHT22;4786;51.270;4.456;2022-08-11T08:05:26;28.50;72.50
9497;DHT22;4786;51.270;4.456;2022-08-11T08:08:13;28.40;73.00
9497;DHT22;4786;51.270;4.456;2022-08-11T08:10:58;28.40;74.50
9497;DHT22;4786;51.270;4.456;2022-08-11T08:13:43;28.20;74.90
9497;DHT22;4786;51.270;4.456;2022-08-11T08:16:29;28.10;75.80
9497;DHT22;4786;51.270;4.456;2022-08-11T08:19:15;28.00;75.90
9497;DHT22;4786;51.270;4.456;2022-08-11T08:21:42;28.10;75.30
9497;DHT22;4786;51.270;4.456;2022-08-11T08:24:09;28.10;76.50
9497;DHT22;4786;51.270;4.456;2022-08-11T08:26:35;28.20;75.60
9497;DHT22;4786;51.270;4.456;2022-08-11T08:29:20;28.30;76.10
9497;DHT22;4786;51.270;4.456;2022-08-11T08:32:06;28.40;76.70
9497;DHT22;4786;51.270;4.456;2022-08-11T08:34:34;28.60;79.30
9497;DHT22;4786;51.270;4.456;2022-08-11T08:37:00;28.80;78.00
9497;DHT22;4786;51.270;4.456;2022-08-11T08:39:26;28.90;74.50
9497;DHT22;4786;51.270;4.456;2022-08-11T08:41:55;28.90;74.70
9497;DHT22;4786;51.270;4.456;2022-08-11T08:44:23;29.00;76.20
9497;DHT22;4786;51.270;4.456;2022-08-11T08:46:57;28.80;74.10
9497;DHT22;4786;51.270;4.456;2022-08-11T08:49:28;28.60;73.00
9497;DHT22;4786;51.270;4.456;2022-08-11T08:51:58;28.70;75.40
9497;DHT22;4786;51.270;4.456;2022-08-11T08:54:37;28.80;73.80
9497;DHT22;4786;51.270;4.456;2022-08-11T08:57:06;28.60;72.40
9497;DHT22;4786;51.270;4.456;2022-08-11T08:59:41;28.60;72.00
9497;DHT22;4786;51.270;4.456;2022-08-11T09:02:08;28.50;73.50
9497;DHT22;4786;51.270;4.456;2022-08-11T09:04:39;28.60;73.50
9497;DHT22;4786;51.270;4.456;2022-08-11T09:07:09;28.70;74.10
9497;DHT22;4786;51.270;4.456;2022-08-11T09:09:41;28.70;75.70
9497;DHT22;4786;51.270;4.456;2022-08-11T09:12:08;28.80;72.00
9497;DHT22;4786;51.270;4.456;2022-08-11T09:14:36;28.90;71.40
9497;DHT22;4786;51.270;4.456;2022-08-11T09:17:22;29.00;73.00
9497;DHT22;4786;51.270;4.456;2022-08-11T09:19:53;29.00;70.60
9497;DHT22;4786;51.270;4.456;2022-08-11T09:22:26;29.00;70.40
9497;DHT22;4786;51.270;4.456;2022-08-11T09:25:12;29.10;70.70
9497;DHT22;4786;51.270;4.456;2022-08-11T09:27:57;29.10;71.60
9497;DHT22;4786;51.270;4.456;2022-08-11T09:30:24;29.30;70.70
9497;DHT22;4786;51.270;4.456;2022-08-11T09:33:01;29.40;72.50
9497;DHT22;4786;51.270;4.456;2022-08-11T09:35:28;29.60;72.10
9497;DHT22;4786;51.270;4.456;2022-08-11T09:37:55;29.80;72.20
9497;DHT22;4786;51.270;4.456;2022-08-11T09:40:46;30.00;70.00
9497;DHT22;4786;51.270;4.456;2022-08-11T09:43:15;30.20;73.90
9497;DHT22;4786;51.270;4.456;2022-08-11T09:46:01;30.40;69.40
9497;DHT22;4786;51.270;4.456;2022-08-11T09:48:36;30.70;69.60
9497;DHT22;4786;51.270;4.456;2022-08-11T09:51:04;30.80;67.10
9497;DHT22;4786;51.270;4.456;2022-08-11T09:53:34;31.10;67.80
9497;DHT22;4786;51.270;4.456;2022-08-11T09:56:01;31.20;66.30
9497;DHT22;4786;51.270;4.456;2022-08-11T09:58:47;31.50;68.30
9497;DHT22;4786;51.270;4.456;2022-08-11T10:01:15;31.80;65.20
9497;DHT22;4786;51.270;4.456;2022-08-11T10:04:05;32.00;67.20
9497;DHT22;4786;51.270;4.456;2022-08-11T10:06:36;31.90;62.70
9497;DHT22;4786;51.270;4.456;2022-08-11T10:09:23;32.10;65.40
9497;DHT22;4786;51.270;4.456;2022-08-11T10:11:53;32.40;63.90
9497;DHT22;4786;51.270;4.456;2022-08-11T10:14:21;32.50;64.90
9497;DHT22;4786;51.270;4.456;2022-08-11T10:17:07;32.70;62.60
9497;DHT22;4786;51.270;4.456;2022-08-11T10:19:37;32.90;63.40
9497;DHT22;4786;51.270;4.456;2022-08-11T10:22:05;32.90;64.30
9497;DHT22;4786;51.270;4.456;2022-08-11T10:24:51;33.00;61.50
9497;DHT22;4786;51.270;4.456;2022-08-11T10:27:38;33.20;61.00
9497;DHT22;4786;51.270;4.456;2022-08-11T10:30:06;33.30;60.40
9497;DHT22;4786;51.270;4.456;2022-08-11T10:32:50;33.50;61.80
9497;DHT22;4786;51.270;4.456;2022-08-11T10:35:36;33.60;58.00
9497;DHT22;4786;51.270;4.456;2022-08-11T10:38:03;33.50;59.00
9497;DHT22;4786;51.270;4.456;2022-08-11T10:40:29;33.80;62.20
9497;DHT22;4786;51.270;4.456;2022-08-11T10:42:58;33.50;57.20
9497;DHT22;4786;51.270;4.456;2022-08-11T10:45:32;33.30;60.00
9497;DHT22;4786;51.270;4.456;2022-08-11T10:48:19;33.20;58.60
9497;DHT22;4786;51.270;4.456;2022-08-11T10:50:48;33.50;59.60
9497;DHT22;4786;51.270;4.456;2022-08-11T10:53:34;33.70;60.60
9497;DHT22;4786;51.270;4.456;2022-08-11T10:56:20;33.90;57.50
9497;DHT22;4786;51.270;4.456;2022-08-11T10:59:05;34.00;57.70
9497;DHT22;4786;51.270;4.456;2022-08-11T11:01:35;33.80;56.00
9497;DHT22;4786;51.270;4.456;2022-08-11T11:04:11;33.90;57.00
9497;DHT22;4786;51.270;4.456;2022-08-11T11:06:55;34.10;56.20
9497;DHT22;4786;51.270;4.456;2022-08-11T11:09:37;33.90;56.10
9497;DHT22;4786;51.270;4.456;2022-08-11T11:12:14;33.90;58.50
9497;DHT22;4786;51.270;4.456;2022-08-11T11:15:03;33.80;55.70
9497;DHT22;4786;51.270;4.456;2022-08-11T11:17:55;33.70;55.00
9497;DHT22;4786;51.270;4.456;2022-08-11T11:20:29;33.70;54.20
9497;DHT22;4786;51.270;4.456;2022-08-11T11:23:08;33.60;54.90
9497;DHT22;4786;51.270;4.456;2022-08-11T11:31:31;34.10;56.20
9497;DHT22;4786;51.270;4.456;2022-08-11T11:36:57;34.40;58.10
9497;DHT22;4786;51.270;4.456;2022-08-11T11:39:26;34.60;59.70
9497;DHT22;4786;51.270;4.456;2022-08-11T11:41:55;34.70;57.60
9497;DHT22;4786;51.270;4.456;2022-08-11T11:44:22;34.80;59.00
9497;DHT22;4786;51.270;4.456;2022-08-11T11:46:49;34.90;56.10
9497;DHT22;4786;51.270;4.456;2022-08-11T11:49:17;34.90;53.50
9497;DHT22;4786;51.270;4.456;2022-08-11T11:51:48;34.90;54.70
9497;DHT22;4786;51.270;4.456;2022-08-11T11:54:15;34.80;53.20
9497;DHT22;4786;51.270;4.456;2022-08-11T11:56:42;34.70;53.90
9497;DHT22;4786;51.270;4.456;2022-08-11T11:59:09;34.40;54.80
9497;DHT22;4786;51.270;4.456;2022-08-11T12:01:55;34.40;54.20
9497;DHT22;4786;51.270;4.456;2022-08-11T12:04:22;34.60;57.00
9497;DHT22;4786;51.270;4.456;2022-08-11T12:06:49;34.70;53.50
9497;DHT22;4786;51.270;4.456;2022-08-11T12:09:16;34.90;55.20
9497;DHT22;4786;51.270;4.456;2022-08-11T12:11:47;34.80;52.20
9497;DHT22;4786;51.270;4.456;2022-08-11T12:14:33;34.90;53.70
9497;DHT22;4786;51.270;4.456;2022-08-11T12:17:01;34.90;52.90
9497;DHT22;4786;51.270;4.456;2022-08-11T12:19:27;35.00;52.90
9497;DHT22;4786;51.270;4.456;2022-08-11T12:21:55;34.90;51.90
9497;DHT22;4786;51.270;4.456;2022-08-11T12:24:39;34.80;52.30
9497;DHT22;4786;51.270;4.456;2022-08-11T12:27:25;34.90;52.60
9497;DHT22;4786;51.270;4.456;2022-08-11T12:32:19;34.70;52.30
9497;DHT22;4786;51.270;4.456;2022-08-11T12:34:45;34.80;53.00
9497;DHT22;4786;51.270;4.456;2022-08-11T12:37:13;35.00;51.40
9497;DHT22;4786;51.270;4.456;2022-08-11T12:39:46;35.00;52.80
9497;DHT22;4786;51.270;4.456;2022-08-11T12:42:33;34.80;51.10
9497;DHT22;4786;51.270;4.456;2022-08-11T12:45:23;34.90;50.80
9497;DHT22;4786;51.270;4.456;2022-08-11T12:48:19;34.90;51.30
9497;DHT22;4786;51.270;4.456;2022-08-11T12:51:09;35.00;51.40
9497;DHT22;4786;51.270;4.456;2022-08-11T12:53:59;34.80;51.30
9497;DHT22;4786;51.270;4.456;2022-08-11T12:56:35;34.70;49.30
9497;DHT22;4786;51.270;4.456;2022-08-11T12:59:21;34.70;53.10
9497;DHT22;4786;51.270;4.456;2022-08-11T13:02:05;34.60;48.30
9497;DHT22;4786;51.270;4.456;2022-08-11T13:04:50;34.70;51.90
9497;DHT22;4786;51.270;4.456;2022-08-11T13:07:37;34.70;49.00
9497;DHT22;4786;51.270;4.456;2022-08-11T13:10:08;34.60;49.20
9497;DHT22;4786;51.270;4.456;2022-08-11T13:12:34;34.70;52.00
9497;DHT22;4786;51.270;4.456;2022-08-11T13:17:40;35.10;51.00
9497;DHT22;4786;51.270;4.456;2022-08-11T13:20:09;35.10;49.30
9497;DHT22;4786;51.270;4.456;2022-08-11T13:22:38;34.90;48.00
9497;DHT22;4786;51.270;4.456;2022-08-11T13:25:04;35.00;50.30
9497;DHT22;4786;51.270;4.456;2022-08-11T13:27:30;35.20;50.20
9497;DHT22;4786;51.270;4.456;2022-08-11T13:29:57;35.20;49.70
9497;DHT22;4786;51.270;4.456;2022-08-11T13:32:43;35.00;47.40
9497;DHT22;4786;51.270;4.456;2022-08-11T13:35:12;35.00;47.50
9497;DHT22;4786;51.270;4.456;2022-08-11T13:37:41;35.00;48.60
9497;DHT22;4786;51.270;4.456;2022-08-11T13:40:10;34.90;46.80
9497;DHT22;4786;51.270;4.456;2022-08-11T13:42:38;34.90;49.30
9497;DHT22;4786;51.270;4.456;2022-08-11T13:45:06;34.90;48.50
9497;DHT22;4786;51.270;4.456;2022-08-11T13:47:34;34.70;47.40
9497;DHT22;4786;51.270;4.456;2022-08-11T13:50:01;34.80;47.80
9497;DHT22;4786;51.270;4.456;2022-08-11T13:52:27;34.80;47.50
9497;DHT22;4786;51.270;4.456;2022-08-11T13:54:54;34.90;49.40
9497;DHT22;4786;51.270;4.456;2022-08-11T13:57:21;34.90;47.40
9497;DHT22;4786;51.270;4.456;2022-08-11T13:59:52;34.90;47.70
9497;DHT22;4786;51.270;4.456;2022-08-11T14:02:36;34.90;49.30
9497;DHT22;4786;51.270;4.456;2022-08-11T14:05:24;34.80;49.40
9497;DHT22;4786;51.270;4.456;2022-08-11T14:07:53;34.90;51.20
9497;DHT22;4786;51.270;4.456;2022-08-11T14:10:27;35.00;49.20
9497;DHT22;4786;51.270;4.456;2022-08-11T14:13:00;34.80;47.50
9497;DHT22;4786;51.270;4.456;2022-08-11T14:15:46;34.80;47.80
9497;DHT22;4786;51.270;4.456;2022-08-11T14:18:19;34.80;48.40
9497;DHT22;4786;51.270;4.456;2022-08-11T14:20:51;34.80;49.10
9497;DHT22;4786;51.270;4.456;2022-08-11T14:23:49;34.80;48.00
9497;DHT22;4786;51.270;4.456;2022-08-11T14:26:17;34.60;47.90
9497;DHT22;4786;51.270;4.456;2022-08-11T14:28:59;34.50;48.20
9497;DHT22;4786;51.270;4.456;2022-08-11T14:31:28;34.30;48.10
9497;DHT22;4786;51.270;4.456;2022-08-11T14:33:58;34.40;50.90
9497;DHT22;4786;51.270;4.456;2022-08-11T14:36:29;34.30;47.10
9497;DHT22;4786;51.270;4.456;2022-08-11T14:38:55;34.20;48.60
9497;DHT22;4786;51.270;4.456;2022-08-11T14:41:23;34.30;49.30
9497;DHT22;4786;51.270;4.456;2022-08-11T14:44:08;34.10;48.30
9497;DHT22;4786;51.270;4.456;2022-08-11T14:46:54;34.20;48.60
9497;DHT22;4786;51.270;4.456;2022-08-11T14:49:36;34.10;47.90
9497;DHT22;4786;51.270;4.456;2022-08-11T14:52:06;34.10;47.70
9497;DHT22;4786;51.270;4.456;2022-08-11T14:54:34;34.00;47.40
9497;DHT22;4786;51.270;4.456;2022-08-11T14:57:19;34.00;48.30
9497;DHT22;4786;51.270;4.456;2022-08-11T14:59:48;34.00;48.80
9497;DHT22;4786;51.270;4.456;2022-08-11T15:02:15;33.90;47.30
9497;DHT22;4786;51.270;4.456;2022-08-11T15:05:03;34.00;47.10
9497;DHT22;4786;51.270;4.456;2022-08-11T15:07:31;33.90;48.70
9497;DHT22;4786;51.270;4.456;2022-08-11T15:09:58;34.00;46.10
9497;DHT22;4786;51.270;4.456;2022-08-11T15:12:25;33.90;45.80
9497;DHT22;4786;51.270;4.456;2022-08-11T15:14:51;33.70;44.80
9497;DHT22;4786;51.270;4.456;2022-08-11T15:17:36;33.80;46.80
9497;DHT22;4786;51.270;4.456;2022-08-11T15:20:07;33.80;47.00
9497;DHT22;4786;51.270;4.456;2022-08-11T15:22:52;34.00;48.50
9497;DHT22;4786;51.270;4.456;2022-08-11T15:25:37;34.10;45.30
9497;DHT22;4786;51.270;4.456;2022-08-11T15:28:05;34.10;45.80
9497;DHT22;4786;51.270;4.456;2022-08-11T15:30:54;34.10;45.50
9497;DHT22;4786;51.270;4.456;2022-08-11T15:33:42;34.00;46.70
9497;DHT22;4786;51.270;4.456;2022-08-11T15:36:29;33.90;46.90
9497;DHT22;4786;51.270;4.456;2022-08-11T15:39:26;33.70;48.20
9497;DHT22;4786;51.270;4.456;2022-08-11T15:42:12;33.60;47.00
9497;DHT22;4786;51.270;4.456;2022-08-11T15:44:59;33.60;47.30
9497;DHT22;4786;51.270;4.456;2022-08-11T15:47:48;33.60;48.10
9497;DHT22;4786;51.270;4.456;2022-08-11T15:50:26;33.50;48.50
9497;DHT22;4786;51.270;4.456;2022-08-11T15:53:05;33.50;48.20
9497;DHT22;4786;51.270;4.456;2022-08-11T15:55:34;33.40;47.60
9497;DHT22;4786;51.270;4.456;2022-08-11T15:58:02;33.30;48.50
9497;DHT22;4786;51.270;4.456;2022-08-11T16:01:06;33.20;48.00
9497;DHT22;4786;51.270;4.456;2022-08-11T16:03:56;33.10;47.50
9497;DHT22;4786;51.270;4.456;2022-08-11T16:06:59;33.10;48.10
9497;DHT22;4786;51.270;4.456;2022-08-11T16:09:34;33.20;49.80
9497;DHT22;4786;51.270;4.456;2022-08-11T16:12:13;33.20;49.50
9497;DHT22;4786;51.270;4.456;2022-08-11T16:14:42;33.20;48.10
9497;DHT22;4786;51.270;4.456;2022-08-11T16:17:32;33.00;46.80
9497;DHT22;4786;51.270;4.456;2022-08-11T16:20:00;33.00;46.10
9497;DHT22;4786;51.270;4.456;2022-08-11T16:22:33;32.90;46.10
9497;DHT22;4786;51.270;4.456;2022-08-11T16:25:15;32.80;46.50
9497;DHT22;4786;51.270;4.456;2022-08-11T16:27:45;32.70;47.20
9497;DHT22;4786;51.270;4.456;2022-08-11T16:30:12;32.70;48.10
9497;DHT22;4786;51.270;4.456;2022-08-11T16:32:43;32.70;48.80
9497;DHT22;4786;51.270;4.456;2022-08-11T16:35:15;32.70;48.80
9497;DHT22;4786;51.270;4.456;2022-08-11T16:38:02;32.70;49.50
9497;DHT22;4786;51.270;4.456;2022-08-11T16:40:50;32.70;49.00
9497;DHT22;4786;51.270;4.456;2022-08-11T16:43:18;32.60;51.20
9497;DHT22;4786;51.270;4.456;2022-08-11T16:46:03;32.60;50.60
9497;DHT22;4786;51.270;4.456;2022-08-11T16:49:24;32.50;49.90
9497;DHT22;4786;51.270;4.456;2022-08-11T16:51:51;32.40;50.20
9497;DHT22;4786;51.270;4.456;2022-08-11T16:54:17;32.40;50.00
9497;DHT22;4786;51.270;4.456;2022-08-11T16:56:46;32.40;50.30
9497;DHT22;4786;51.270;4.456;2022-08-11T16:59:19;32.30;50.70
9497;DHT22;4786;51.270;4.456;2022-08-11T17:01:55;32.20;50.70
9497;DHT22;4786;51.270;4.456;2022-08-11T17:04:45;32.10;50.90
9497;DHT22;4786;51.270;4.456;2022-08-11T17:07:33;32.10;50.40
9497;DHT22;4786;51.270;4.456;2022-08-11T17:10:26;31.90;49.80
9497;DHT22;4786;51.270;4.456;2022-08-11T17:13:13;31.80;50.20
9497;DHT22;4786;51.270;4.456;2022-08-11T17:15:45;31.80;50.80
9497;DHT22;4786;51.270;4.456;2022-08-11T17:18:32;31.70;50.60
9497;DHT22;4786;51.270;4.456;2022-08-11T17:23:42;31.60;50.50
9497;DHT22;4786;51.270;4.456;2022-08-11T17:29:32;31.40;50.20
9497;DHT22;4786;51.270;4.456;2022-08-11T17:32:05;31.30;50.60
9497;DHT22;4786;51.270;4.456;2022-08-11T17:34:54;31.20;50.80
9497;DHT22;4786;51.270;4.456;2022-08-11T17:37:40;31.10;51.60
9497;DHT22;4786;51.270;4.456;2022-08-11T17:40:08;31.10;51.40
9497;DHT22;4786;51.270;4.456;2022-08-11T17:42:35;31.00;51.90
9497;DHT22;4786;51.270;4.456;2022-08-11T17:45:22;31.00;52.60
9497;DHT22;4786;51.270;4.456;2022-08-11T17:48:08;31.00;52.60
9497;DHT22;4786;51.270;4.456;2022-08-11T17:50:55;30.90;51.90
9497;DHT22;4786;51.270;4.456;2022-08-11T17:53:25;30.80;51.70
9497;DHT22;4786;51.270;4.456;2022-08-11T17:56:10;30.80;53.40
9497;DHT22;4786;51.270;4.456;2022-08-11T17:58:55;30.70;52.20
9497;DHT22;4786;51.270;4.456;2022-08-11T18:01:42;30.60;52.00
9497;DHT22;4786;51.270;4.456;2022-08-11T18:04:09;30.60;52.50
9497;DHT22;4786;51.270;4.456;2022-08-11T18:06:37;30.50;53.00
9497;DHT22;4786;51.270;4.456;2022-08-11T18:09:17;30.50;52.00
9497;DHT22;4786;51.270;4.456;2022-08-11T18:12:04;30.40;52.60
9497;DHT22;4786;51.270;4.456;2022-08-11T18:14:50;30.40;52.60
9497;DHT22;4786;51.270;4.456;2022-08-11T18:17:36;30.30;52.90
9497;DHT22;4786;51.270;4.456;2022-08-11T18:20:20;30.30;53.50
9497;DHT22;4786;51.270;4.456;2022-08-11T18:23:14;30.20;54.00
9497;DHT22;4786;51.270;4.456;2022-08-11T18:26:00;30.20;53.60
9497;DHT22;4786;51.270;4.456;2022-08-11T18:28:47;30.10;53.40
9497;DHT22;4786;51.270;4.456;2022-08-11T18:31:36;30.00;53.90
9497;DHT22;4786;51.270;4.456;2022-08-11T18:34:29;29.90;54.00
9497;DHT22;4786;51.270;4.456;2022-08-11T18:37:18;29.90;54.80
9497;DHT22;4786;51.270;4.456;2022-08-11T18:40:13;29.70;54.70
9497;DHT22;4786;51.270;4.456;2022-08-11T18:43:03;29.70;55.60
9497;DHT22;4786;51.270;4.456;2022-08-11T18:45:51;29.60;55.60
9497;DHT22;4786;51.270;4.456;2022-08-11T18:48:38;29.50;55.50
9497;DHT22;4786;51.270;4.456;2022-08-11T18:51:25;29.40;57.20
9497;DHT22;4786;51.270;4.456;2022-08-11T18:54:12;29.40;57.30
9497;DHT22;4786;51.270;4.456;2022-08-11T18:57:00;29.20;58.10
9497;DHT22;4786;51.270;4.456;2022-08-11T18:59:46;29.10;58.80
9497;DHT22;4786;51.270;4.456;2022-08-11T19:02:31;29.00;57.70
9497;DHT22;4786;51.270;4.456;2022-08-11T19:05:18;28.90;58.20
9497;DHT22;4786;51.270;4.456;2022-08-11T19:08:05;28.80;57.80
9497;DHT22;4786;51.270;4.456;2022-08-11T19:10:53;28.60;57.70
9497;DHT22;4786;51.270;4.456;2022-08-11T19:13:40;28.50;57.80
9497;DHT22;4786;51.270;4.456;2022-08-11T19:16:25;28.50;59.10
9497;DHT22;4786;51.270;4.456;2022-08-11T19:19:12;28.40;59.80
9497;DHT22;4786;51.270;4.456;2022-08-11T19:21:59;28.40;60.20
9497;DHT22;4786;51.270;4.456;2022-08-11T19:24:46;28.30;60.80
9497;DHT22;4786;51.270;4.456;2022-08-11T19:27:32;28.20;61.20
9497;DHT22;4786;51.270;4.456;2022-08-11T19:30:17;28.20;61.60
9497;DHT22;4786;51.270;4.456;2022-08-11T19:33:02;28.10;61.90
9497;DHT22;4786;51.270;4.456;2022-08-11T19:35:47;28.00;62.40
9497;DHT22;4786;51.270;4.456;2022-08-11T19:38:33;27.90;62.90
9497;DHT22;4786;51.270;4.456;2022-08-11T19:41:17;27.80;63.30
9497;DHT22;4786;51.270;4.456;2022-08-11T19:44:02;27.70;63.90
9497;DHT22;4786;51.270;4.456;2022-08-11T19:46:48;27.60;64.50
9497;DHT22;4786;51.270;4.456;2022-08-11T19:49:34;27.50;65.10
9497;DHT22;4786;51.270;4.456;2022-08-11T19:52:19;27.40;65.50
9497;DHT22;4786;51.270;4.456;2022-08-11T19:55:05;27.40;66.40
9497;DHT22;4786;51.270;4.456;2022-08-11T19:57:50;27.20;67.10
9497;DHT22;4786;51.270;4.456;2022-08-11T20:00:35;27.10;68.10
9497;DHT22;4786;51.270;4.456;2022-08-11T20:03:19;27.00;68.50
9497;DHT22;4786;51.270;4.456;2022-08-11T20:06:07;26.90;68.40
9497;DHT22;4786;51.270;4.456;2022-08-11T20:08:57;26.80;69.10
9497;DHT22;4786;51.270;4.456;2022-08-11T20:11:46;26.70;69.30
9497;DHT22;4786;51.270;4.456;2022-08-11T20:14:33;26.60;70.00
9497;DHT22;4786;51.270;4.456;2022-08-11T20:17:20;26.40;70.50
9497;DHT22;4786;51.270;4.456;2022-08-11T20:20:07;26.30;71.00
9497;DHT22;4786;51.270;4.456;2022-08-11T20:22:54;26.20;71.50
9497;DHT22;4786;51.270;4.456;2022-08-11T20:25:40;26.10;72.30
9497;DHT22;4786;51.270;4.456;2022-08-11T20:28:25;26.00;72.70
9497;DHT22;4786;51.270;4.456;2022-08-11T20:31:10;26.00;73.70
9497;DHT22;4786;51.270;4.456;2022-08-11T20:33:57;26.00;73.80
9497;DHT22;4786;51.270;4.456;2022-08-11T20:36:43;25.90;74.10
9497;DHT22;4786;51.270;4.456;2022-08-11T20:39:30;25.80;74.30
9497;DHT22;4786;51.270;4.456;2022-08-11T20:42:15;25.80;74.60
9497;DHT22;4786;51.270;4.456;2022-08-11T20:45:01;25.80;75.00
9497;DHT22;4786;51.270;4.456;2022-08-11T20:47:47;25.70;74.60
9497;DHT22;4786;51.270;4.456;2022-08-11T20:50:32;25.70;74.70
9497;DHT22;4786;51.270;4.456;2022-08-11T20:53:17;25.60;74.80
9497;DHT22;4786;51.270;4.456;2022-08-11T20:56:04;25.60;75.50
9497;DHT22;4786;51.270;4.456;2022-08-11T20:58:49;25.60;76.00
9497;DHT22;4786;51.270;4.456;2022-08-11T21:01:34;25.50;77.60